Terminal Aerodrome Forecast
Issued by NWS

Home | Current Version | Previous Version | Text Only | Print | Product List | Glossary On
Versions: 1 2 3 4 5 6 7 8 9 10 11 12 13 14 15 16 17 18 19 20 21 22 23 24 25 26 27 28 29 30 31 32 33 34 35 36 37 38 39 40 41
000
FTUS46 KEKA 210916 AAA
TAFACV
TAF AMD
KACV 210916Z 2109/2206 VRB03KT P6SM VCSH SCT030
     FM211100 00000KT 4SM BR SCT005 BKN025
      TEMPO 2114/2116 2SM BR BKN002
     FM211700 32006KT P6SM SCT025 SCT200
     FM212000 32011KT P6SM SCT150
     FM220100 34005KT P6SM SCT150=

USA.gov is the U.S. government's official web portal to all federal, state and local government web resources and services.